Airfield :
LOGIN :

Register | Disclaimer

   EN    FR    IT 

 










Legend :    VFR   Marginal VFR   IFR   Intensive IFR   Very Intensive IFR
Visi :
Ceiling :
>= 8 km
>= 3000ft
5 to 8 km
1000 to 3000 ft
1500m to 5 km
500 to 1000 ft
800 to 1500m
200 to 500 ft
< 800m
< 200 ft
Symbols :   Thunderstorms  Fog  Heavy snow  Heavy precipitations  Wind > 20 kt
SIGMETs :     Misc.  Thunderstorms  Icing  Turbulence  Mountain Waves  Volcanic Ashes






- Airport Elevation : 2776 ft
- IATA code : VLL


LEVD - Valladolid

CURRENT METAR :
  • 220930Z 23004KT 190V270 9999 BKN009 OVC036 11/08 Q1013

EXPIRED METARs :
  • 220900Z 21005KT 160V240 9999 SCT008 BKN019 OVC028 10/08 Q1013
  • 220830Z 18003KT 150V220 9999 SCT006 BKN010 OVC029 10/09 Q1013
  • 220800Z 14003KT 080V170 9999 SCT004 BKN011 OVC028 09/09 Q1012
  • 220730Z 11004KT 080V140 9999 BKN006 BKN012 OVC027 09/08 Q1012
  • 220700Z 11004KT 080V150 9000 BKN005 OVC028 09/08 Q1012

TAF TAF LEVD
Valid from the 22 at 09:00 until the 23 at 09:00 UTC


220800Z 2209/2309 VRB04KT 9999 SCT015 BKN025 TX14/2215Z TN06/2306Z
PROB40
TEMPO 2209/2211 BKN006 BKN012
PROB30
TEMPO 2209/2218 3000 SHRA RA BKN014 SCT025TCU



MET'MAP, your aeronautical weather chart ! - Copyright ORBIFLY December 2007 - Disclaimer

ORBIFLY MET'MAP TEAM :

Programming & Development : Alexandra Zaïnal
Concept & original design : Baudouin d'Aumeries
Assistance for programming : Marc-Olivier Méhu
Technical & hardware support : Manuel Goepfert

Contact : metmap@orbifly.com




SOURCES & CREDITS :

   NOAA